sensor_id;sensor_type;location;lat;lon;timestamp;P1;durP1;ratioP1;P2;durP2;ratioP2
21816;SDS011;13247;47.504;7.382;2023-02-12T00:00:22;38.90;;;15.48;;
21816;SDS011;13247;47.504;7.382;2023-02-12T00:03:07;33.85;;;14.57;;
21816;SDS011;13247;47.504;7.382;2023-02-12T00:05:51;31.90;;;14.95;;
21816;SDS011;13247;47.504;7.382;2023-02-12T00:08:36;33.50;;;14.30;;
21816;SDS011;13247;47.504;7.382;2023-02-12T00:11:28;30.33;;;14.82;;
21816;SDS011;13247;47.504;7.382;2023-02-12T00:14:13;43.40;;;18.40;;
21816;SDS011;13247;47.504;7.382;2023-02-12T00:16:57;47.78;;;20.23;;
21816;SDS011;13247;47.504;7.382;2023-02-12T00:19:42;36.25;;;16.40;;
21816;SDS011;13247;47.504;7.382;2023-02-12T00:22:27;37.88;;;16.58;;
21816;SDS011;13247;47.504;7.382;2023-02-12T00:25:12;34.05;;;16.08;;
21816;SDS011;13247;47.504;7.382;2023-02-12T00:27:57;37.38;;;16.50;;
21816;SDS011;13247;47.504;7.382;2023-02-12T00:30:42;42.45;;;17.48;;
21816;SDS011;13247;47.504;7.382;2023-02-12T00:33:27;71.43;;;26.65;;
21816;SDS011;13247;47.504;7.382;2023-02-12T00:36:13;51.70;;;24.77;;
21816;SDS011;13247;47.504;7.382;2023-02-12T00:38:59;49.65;;;19.95;;
21816;SDS011;13247;47.504;7.382;2023-02-12T00:41:44;49.03;;;20.45;;
21816;SDS011;13247;47.504;7.382;2023-02-12T00:44:29;51.75;;;22.50;;
21816;SDS011;13247;47.504;7.382;2023-02-12T00:47:13;57.42;;;23.13;;
21816;SDS011;13247;47.504;7.382;2023-02-12T00:49:59;49.08;;;22.30;;
21816;SDS011;13247;47.504;7.382;2023-02-12T00:52:43;49.47;;;21.85;;
21816;SDS011;13247;47.504;7.382;2023-02-12T00:55:28;59.75;;;24.13;;
21816;SDS011;13247;47.504;7.382;2023-02-12T00:58:15;59.20;;;25.75;;
21816;SDS011;13247;47.504;7.382;2023-02-12T01:01:00;58.50;;;22.20;;
21816;SDS011;13247;47.504;7.382;2023-02-12T01:03:45;34.70;;;16.88;;
21816;SDS011;13247;47.504;7.382;2023-02-12T01:06:30;35.22;;;16.73;;
21816;SDS011;13247;47.504;7.382;2023-02-12T01:09:14;40.75;;;17.73;;
21816;SDS011;13247;47.504;7.382;2023-02-12T01:11:59;35.03;;;15.98;;
21816;SDS011;13247;47.504;7.382;2023-02-12T01:14:43;38.20;;;18.05;;
21816;SDS011;13247;47.504;7.382;2023-02-12T01:17:28;35.45;;;16.30;;
21816;SDS011;13247;47.504;7.382;2023-02-12T01:20:14;40.30;;;16.00;;
21816;SDS011;13247;47.504;7.382;2023-02-12T01:23:02;30.27;;;15.82;;
21816;SDS011;13247;47.504;7.382;2023-02-12T01:25:49;33.67;;;15.15;;
21816;SDS011;13247;47.504;7.382;2023-02-12T01:28:34;36.25;;;15.95;;
21816;SDS011;13247;47.504;7.382;2023-02-12T01:31:21;35.95;;;15.50;;
21816;SDS011;13247;47.504;7.382;2023-02-12T01:34:08;33.97;;;15.68;;
21816;SDS011;13247;47.504;7.382;2023-02-12T01:36:54;41.33;;;16.77;;
21816;SDS011;13247;47.504;7.382;2023-02-12T01:39:38;37.70;;;16.45;;
21816;SDS011;13247;47.504;7.382;2023-02-12T01:42:23;33.55;;;16.95;;
21816;SDS011;13247;47.504;7.382;2023-02-12T01:47:58;33.95;;;16.40;;
21816;SDS011;13247;47.504;7.382;2023-02-12T01:50:43;33.75;;;16.00;;
21816;SDS011;13247;47.504;7.382;2023-02-12T01:53:37;41.28;;;17.35;;
21816;SDS011;13247;47.504;7.382;2023-02-12T01:56:26;36.90;;;17.80;;
21816;SDS011;13247;47.504;7.382;2023-02-12T01:59:11;40.10;;;17.15;;
21816;SDS011;13247;47.504;7.382;2023-02-12T02:01:56;38.90;;;16.17;;
21816;SDS011;13247;47.504;7.382;2023-02-12T02:04:45;39.78;;;17.95;;
21816;SDS011;13247;47.504;7.382;2023-02-12T02:07:38;48.22;;;21.30;;
21816;SDS011;13247;47.504;7.382;2023-02-12T02:10:25;37.85;;;19.50;;
21816;SDS011;13247;47.504;7.382;2023-02-12T02:13:12;43.92;;;18.80;;
21816;SDS011;13247;47.504;7.382;2023-02-12T02:16:25;42.65;;;18.45;;
21816;SDS011;13247;47.504;7.382;2023-02-12T02:19:19;36.78;;;16.17;;
21816;SDS011;13247;47.504;7.382;2023-02-12T02:22:58;33.63;;;16.63;;
21816;SDS011;13247;47.504;7.382;2023-02-12T02:32:08;32.85;;;14.15;;
21816;SDS011;13247;47.504;7.382;2023-02-12T02:34:59;32.42;;;15.98;;
21816;SDS011;13247;47.504;7.382;2023-02-12T02:37:53;35.80;;;15.02;;
21816;SDS011;13247;47.504;7.382;2023-02-12T02:43:40;30.40;;;14.65;;
21816;SDS011;13247;47.504;7.382;2023-02-12T02:46:31;39.30;;;15.88;;
21816;SDS011;13247;47.504;7.382;2023-02-12T02:49:30;36.13;;;15.68;;
21816;SDS011;13247;47.504;7.382;2023-02-12T02:52:25;35.95;;;15.10;;
21816;SDS011;13247;47.504;7.382;2023-02-12T02:55:17;43.08;;;17.00;;
21816;SDS011;13247;47.504;7.382;2023-02-12T02:58:11;33.60;;;15.98;;
21816;SDS011;13247;47.504;7.382;2023-02-12T03:01:15;33.50;;;15.70;;
21816;SDS011;13247;47.504;7.382;2023-02-12T03:04:32;33.28;;;15.73;;
21816;SDS011;13247;47.504;7.382;2023-02-12T03:07:24;36.92;;;15.70;;
21816;SDS011;13247;47.504;7.382;2023-02-12T03:13:27;32.45;;;14.77;;
21816;SDS011;13247;47.504;7.382;2023-02-12T03:16:34;36.58;;;16.58;;
21816;SDS011;13247;47.504;7.382;2023-02-12T03:20:05;36.15;;;16.05;;
21816;SDS011;13247;47.504;7.382;2023-02-12T03:22:52;39.00;;;16.60;;
21816;SDS011;13247;47.504;7.382;2023-02-12T03:26:16;37.08;;;16.30;;
21816;SDS011;13247;47.504;7.382;2023-02-12T03:29:08;35.75;;;16.02;;
21816;SDS011;13247;47.504;7.382;2023-02-12T03:35:20;44.25;;;17.00;;
21816;SDS011;13247;47.504;7.382;2023-02-12T03:38:09;40.08;;;16.00;;
21816;SDS011;13247;47.504;7.382;2023-02-12T03:47:16;32.15;;;14.85;;
21816;SDS011;13247;47.504;7.382;2023-02-12T03:53:03;34.70;;;15.63;;
21816;SDS011;13247;47.504;7.382;2023-02-12T03:55:50;30.25;;;14.57;;
21816;SDS011;13247;47.504;7.382;2023-02-12T03:58:40;34.25;;;16.08;;
21816;SDS011;13247;47.504;7.382;2023-02-12T04:01:28;40.90;;;15.82;;
21816;SDS011;13247;47.504;7.382;2023-02-12T04:04:14;32.13;;;16.15;;
21816;SDS011;13247;47.504;7.382;2023-02-12T04:06:59;38.55;;;16.45;;
21816;SDS011;13247;47.504;7.382;2023-02-12T04:09:45;29.52;;;14.85;;
21816;SDS011;13247;47.504;7.382;2023-02-12T04:12:32;34.58;;;15.52;;
21816;SDS011;13247;47.504;7.382;2023-02-12T04:18:25;33.65;;;14.68;;
21816;SDS011;13247;47.504;7.382;2023-02-12T04:30:23;41.33;;;17.23;;
21816;SDS011;13247;47.504;7.382;2023-02-12T04:33:21;37.22;;;16.88;;
21816;SDS011;13247;47.504;7.382;2023-02-12T04:36:29;37.42;;;16.35;;
21816;SDS011;13247;47.504;7.382;2023-02-12T04:39:19;39.60;;;16.88;;
21816;SDS011;13247;47.504;7.382;2023-02-12T04:42:08;38.88;;;17.45;;
21816;SDS011;13247;47.504;7.382;2023-02-12T04:44:53;38.47;;;17.73;;
21816;SDS011;13247;47.504;7.382;2023-02-12T04:47:37;40.80;;;17.33;;
21816;SDS011;13247;47.504;7.382;2023-02-12T04:50:22;35.03;;;16.17;;
21816;SDS011;13247;47.504;7.382;2023-02-12T04:53:07;36.92;;;17.70;;
21816;SDS011;13247;47.504;7.382;2023-02-12T04:55:52;35.20;;;16.52;;
21816;SDS011;13247;47.504;7.382;2023-02-12T04:58:38;37.25;;;17.00;;
21816;SDS011;13247;47.504;7.382;2023-02-12T05:01:24;37.30;;;17.85;;
21816;SDS011;13247;47.504;7.382;2023-02-12T05:04:09;34.92;;;16.85;;
21816;SDS011;13247;47.504;7.382;2023-02-12T05:06:56;35.03;;;16.77;;
21816;SDS011;13247;47.504;7.382;2023-02-12T05:09:41;38.65;;;16.58;;
21816;SDS011;13247;47.504;7.382;2023-02-12T05:12:25;35.38;;;16.08;;
21816;SDS011;13247;47.504;7.382;2023-02-12T05:15:10;38.38;;;16.92;;
21816;SDS011;13247;47.504;7.382;2023-02-12T05:17:55;33.75;;;15.60;;
21816;SDS011;13247;47.504;7.382;2023-02-12T05:20:39;40.22;;;16.63;;
21816;SDS011;13247;47.504;7.382;2023-02-12T05:23:32;39.75;;;16.52;;
21816;SDS011;13247;47.504;7.382;2023-02-12T05:26:19;50.92;;;17.60;;
21816;SDS011;13247;47.504;7.382;2023-02-12T05:29:04;38.50;;;17.45;;
21816;SDS011;13247;47.504;7.382;2023-02-12T05:31:49;41.88;;;17.50;;
21816;SDS011;13247;47.504;7.382;2023-02-12T05:34:33;41.75;;;17.45;;
21816;SDS011;13247;47.504;7.382;2023-02-12T05:37:18;45.28;;;18.52;;
21816;SDS011;13247;47.504;7.382;2023-02-12T05:40:04;47.08;;;19.77;;
21816;SDS011;13247;47.504;7.382;2023-02-12T05:42:49;48.47;;;18.85;;
21816;SDS011;13247;47.504;7.382;2023-02-12T05:45:33;38.40;;;18.70;;
21816;SDS011;13247;47.504;7.382;2023-02-12T05:48:20;45.22;;;19.48;;
21816;SDS011;13247;47.504;7.382;2023-02-12T05:51:06;46.13;;;20.13;;
21816;SDS011;13247;47.504;7.382;2023-02-12T05:54:03;47.38;;;20.92;;
21816;SDS011;13247;47.504;7.382;2023-02-12T05:56:49;47.42;;;21.58;;
21816;SDS011;13247;47.504;7.382;2023-02-12T05:59:34;49.33;;;21.52;;
21816;SDS011;13247;47.504;7.382;2023-02-12T06:02:18;48.72;;;21.83;;
21816;SDS011;13247;47.504;7.382;2023-02-12T06:05:03;59.33;;;23.08;;
21816;SDS011;13247;47.504;7.382;2023-02-12T06:07:48;53.17;;;22.48;;
21816;SDS011;13247;47.504;7.382;2023-02-12T06:10:32;47.35;;;21.35;;
21816;SDS011;13247;47.504;7.382;2023-02-12T06:13:17;47.13;;;21.42;;
21816;SDS011;13247;47.504;7.382;2023-02-12T06:16:01;51.55;;;21.27;;
21816;SDS011;13247;47.504;7.382;2023-02-12T06:18:47;42.78;;;20.23;;
21816;SDS011;13247;47.504;7.382;2023-02-12T06:21:32;49.10;;;21.30;;
21816;SDS011;13247;47.504;7.382;2023-02-12T06:24:17;48.90;;;21.60;;
21816;SDS011;13247;47.504;7.382;2023-02-12T06:27:02;44.10;;;20.23;;
21816;SDS011;13247;47.504;7.382;2023-02-12T06:29:47;43.90;;;20.75;;
21816;SDS011;13247;47.504;7.382;2023-02-12T06:32:31;48.40;;;20.83;;
21816;SDS011;13247;47.504;7.382;2023-02-12T06:35:16;46.38;;;19.30;;
21816;SDS011;13247;47.504;7.382;2023-02-12T06:38:01;45.08;;;19.35;;
21816;SDS011;13247;47.504;7.382;2023-02-12T06:40:46;39.22;;;17.75;;
21816;SDS011;13247;47.504;7.382;2023-02-12T06:43:31;44.20;;;18.90;;
21816;SDS011;13247;47.504;7.382;2023-02-12T06:46:15;38.92;;;18.40;;
21816;SDS011;13247;47.504;7.382;2023-02-12T06:49:00;43.13;;;20.17;;
21816;SDS011;13247;47.504;7.382;2023-02-12T06:51:45;41.53;;;18.77;;
21816;SDS011;13247;47.504;7.382;2023-02-12T06:54:29;43.47;;;19.08;;
21816;SDS011;13247;47.504;7.382;2023-02-12T06:57:14;49.42;;;19.67;;
21816;SDS011;13247;47.504;7.382;2023-02-12T06:59:59;41.78;;;20.02;;
21816;SDS011;13247;47.504;7.382;2023-02-12T07:02:43;52.55;;;20.60;;
21816;SDS011;13247;47.504;7.382;2023-02-12T07:05:34;50.95;;;20.58;;
21816;SDS011;13247;47.504;7.382;2023-02-12T07:08:21;52.95;;;23.08;;
21816;SDS011;13247;47.504;7.382;2023-02-12T07:11:06;54.42;;;22.35;;
21816;SDS011;13247;47.504;7.382;2023-02-12T07:13:51;50.03;;;20.75;;
21816;SDS011;13247;47.504;7.382;2023-02-12T07:16:36;47.00;;;20.17;;
21816;SDS011;13247;47.504;7.382;2023-02-12T07:19:21;43.72;;;20.15;;
21816;SDS011;13247;47.504;7.382;2023-02-12T07:22:06;49.92;;;22.05;;
21816;SDS011;13247;47.504;7.382;2023-02-12T07:24:50;44.28;;;21.40;;
21816;SDS011;13247;47.504;7.382;2023-02-12T07:27:35;47.45;;;20.98;;
21816;SDS011;13247;47.504;7.382;2023-02-12T07:30:21;51.50;;;23.05;;
21816;SDS011;13247;47.504;7.382;2023-02-12T07:33:05;51.00;;;22.83;;
21816;SDS011;13247;47.504;7.382;2023-02-12T07:35:50;51.72;;;22.98;;
21816;SDS011;13247;47.504;7.382;2023-02-12T07:38:35;48.38;;;22.98;;
21816;SDS011;13247;47.504;7.382;2023-02-12T07:44:09;56.40;;;25.45;;
21816;SDS011;13247;47.504;7.382;2023-02-12T07:46:55;51.58;;;23.13;;
21816;SDS011;13247;47.504;7.382;2023-02-12T07:49:40;51.38;;;23.02;;
21816;SDS011;13247;47.504;7.382;2023-02-12T07:52:24;56.53;;;24.80;;
21816;SDS011;13247;47.504;7.382;2023-02-12T07:55:09;56.70;;;24.85;;
21816;SDS011;13247;47.504;7.382;2023-02-12T07:57:53;60.78;;;26.52;;
21816;SDS011;13247;47.504;7.382;2023-02-12T08:00:38;67.60;;;28.55;;
21816;SDS011;13247;47.504;7.382;2023-02-12T08:03:23;64.47;;;28.55;;
21816;SDS011;13247;47.504;7.382;2023-02-12T08:06:12;60.22;;;26.90;;
21816;SDS011;13247;47.504;7.382;2023-02-12T08:09:03;53.00;;;23.23;;
21816;SDS011;13247;47.504;7.382;2023-02-12T08:11:49;65.38;;;26.40;;
21816;SDS011;13247;47.504;7.382;2023-02-12T08:14:35;73.28;;;30.60;;
21816;SDS011;13247;47.504;7.382;2023-02-12T08:17:19;66.63;;;28.15;;
21816;SDS011;13247;47.504;7.382;2023-02-12T08:20:04;72.15;;;31.17;;
21816;SDS011;13247;47.504;7.382;2023-02-12T08:22:49;73.22;;;29.65;;
21816;SDS011;13247;47.504;7.382;2023-02-12T08:25:34;76.47;;;31.92;;
21816;SDS011;13247;47.504;7.382;2023-02-12T08:28:18;148.38;;;56.40;;
21816;SDS011;13247;47.504;7.382;2023-02-12T08:31:06;145.43;;;55.88;;
21816;SDS011;13247;47.504;7.382;2023-02-12T08:33:57;116.35;;;48.97;;
21816;SDS011;13247;47.504;7.382;2023-02-12T08:36:42;159.75;;;64.45;;
21816;SDS011;13247;47.504;7.382;2023-02-12T08:39:27;177.13;;;67.40;;
21816;SDS011;13247;47.504;7.382;2023-02-12T08:42:13;143.35;;;58.25;;
21816;SDS011;13247;47.504;7.382;2023-02-12T08:44:57;97.45;;;43.78;;
21816;SDS011;13247;47.504;7.382;2023-02-12T08:47:42;115.18;;;48.40;;
21816;SDS011;13247;47.504;7.382;2023-02-12T08:50:26;67.88;;;31.58;;
21816;SDS011;13247;47.504;7.382;2023-02-12T08:53:11;63.92;;;31.33;;
21816;SDS011;13247;47.504;7.382;2023-02-12T08:55:55;59.92;;;29.42;;
21816;SDS011;13247;47.504;7.382;2023-02-12T08:58:40;61.33;;;29.08;;
21816;SDS011;13247;47.504;7.382;2023-02-12T09:01:26;58.35;;;29.08;;
21816;SDS011;13247;47.504;7.382;2023-02-12T09:04:14;60.05;;;29.48;;
21816;SDS011;13247;47.504;7.382;2023-02-12T09:07:00;67.22;;;30.80;;
21816;SDS011;13247;47.504;7.382;2023-02-12T09:09:45;58.47;;;29.10;;
21816;SDS011;13247;47.504;7.382;2023-02-12T09:12:30;62.15;;;30.00;;
21816;SDS011;13247;47.504;7.382;2023-02-12T09:15:14;60.35;;;29.40;;
21816;SDS011;13247;47.504;7.382;2023-02-12T09:17:59;65.43;;;30.92;;
21816;SDS011;13247;47.504;7.382;2023-02-12T09:20:46;65.47;;;31.73;;
21816;SDS011;13247;47.504;7.382;2023-02-12T09:23:31;70.75;;;33.08;;
21816;SDS011;13247;47.504;7.382;2023-02-12T09:26:17;54.35;;;28.35;;
21816;SDS011;13247;47.504;7.382;2023-02-12T09:29:04;57.35;;;27.10;;
21816;SDS011;13247;47.504;7.382;2023-02-12T09:31:48;43.05;;;22.38;;
21816;SDS011;13247;47.504;7.382;2023-02-12T09:34:36;33.97;;;17.23;;
21816;SDS011;13247;47.504;7.382;2023-02-12T09:37:21;28.42;;;14.52;;
21816;SDS011;13247;47.504;7.382;2023-02-12T09:40:06;28.63;;;13.18;;
21816;SDS011;13247;47.504;7.382;2023-02-12T09:42:58;19.92;;;9.57;;
21816;SDS011;13247;47.504;7.382;2023-02-12T09:46:07;22.60;;;9.48;;
21816;SDS011;13247;47.504;7.382;2023-02-12T09:49:06;22.17;;;9.73;;
21816;SDS011;13247;47.504;7.382;2023-02-12T09:51:52;21.63;;;8.88;;
21816;SDS011;13247;47.504;7.382;2023-02-12T09:54:37;18.75;;;9.10;;
21816;SDS011;13247;47.504;7.382;2023-02-12T09:57:27;20.52;;;8.65;;
21816;SDS011;13247;47.504;7.382;2023-02-12T10:00:21;14.95;;;7.82;;
21816;SDS011;13247;47.504;7.382;2023-02-12T10:03:15;17.80;;;8.23;;
21816;SDS011;13247;47.504;7.382;2023-02-12T10:06:02;13.27;;;7.35;;
21816;SDS011;13247;47.504;7.382;2023-02-12T10:11:52;15.55;;;7.43;;
21816;SDS011;13247;47.504;7.382;2023-02-12T10:24:10;14.70;;;7.57;;
21816;SDS011;13247;47.504;7.382;2023-02-12T10:27:24;14.35;;;7.15;;
21816;SDS011;13247;47.504;7.382;2023-02-12T10:33:06;16.17;;;7.93;;
21816;SDS011;13247;47.504;7.382;2023-02-12T10:35:58;18.60;;;8.50;;
21816;SDS011;13247;47.504;7.382;2023-02-12T10:39:00;15.15;;;8.07;;
21816;SDS011;13247;47.504;7.382;2023-02-12T10:41:57;16.17;;;6.95;;
21816;SDS011;13247;47.504;7.382;2023-02-12T10:45:03;15.85;;;8.20;;
21816;SDS011;13247;47.504;7.382;2023-02-12T10:47:51;17.38;;;8.35;;
21816;SDS011;13247;47.504;7.382;2023-02-12T10:53:50;15.13;;;7.65;;
21816;SDS011;13247;47.504;7.382;2023-02-12T10:56:35;15.30;;;7.60;;
21816;SDS011;13247;47.504;7.382;2023-02-12T10:59:21;15.48;;;7.93;;
21816;SDS011;13247;47.504;7.382;2023-02-12T11:02:26;17.75;;;8.85;;
21816;SDS011;13247;47.504;7.382;2023-02-12T11:05:21;15.70;;;8.10;;
21816;SDS011;13247;47.504;7.382;2023-02-12T11:08:25;16.95;;;8.73;;
21816;SDS011;13247;47.504;7.382;2023-02-12T11:11:11;18.05;;;7.25;;
21816;SDS011;13247;47.504;7.382;2023-02-12T11:14:03;17.00;;;9.55;;
21816;SDS011;13247;47.504;7.382;2023-02-12T11:17:00;17.50;;;8.95;;
21816;SDS011;13247;47.504;7.382;2023-02-12T11:19:45;17.08;;;8.65;;
21816;SDS011;13247;47.504;7.382;2023-02-12T11:23:05;15.13;;;8.98;;
21816;SDS011;13247;47.504;7.382;2023-02-12T11:29:20;16.00;;;8.32;;
21816;SDS011;13247;47.504;7.382;2023-02-12T11:32:19;18.67;;;8.48;;
21816;SDS011;13247;47.504;7.382;2023-02-12T11:35:05;18.63;;;8.95;;
21816;SDS011;13247;47.504;7.382;2023-02-12T11:38:22;17.88;;;8.63;;
21816;SDS011;13247;47.504;7.382;2023-02-12T11:41:22;15.40;;;7.75;;
21816;SDS011;13247;47.504;7.382;2023-02-12T11:44:23;14.80;;;7.55;;
21816;SDS011;13247;47.504;7.382;2023-02-12T11:47:16;14.70;;;8.25;;
21816;SDS011;13247;47.504;7.382;2023-02-12T11:50:07;16.80;;;9.15;;
21816;SDS011;13247;47.504;7.382;2023-02-12T11:53:06;14.45;;;8.35;;
21816;SDS011;13247;47.504;7.382;2023-02-12T11:55:53;15.25;;;8.05;;
21816;SDS011;13247;47.504;7.382;2023-02-12T11:58:50;15.30;;;8.90;;
21816;SDS011;13247;47.504;7.382;2023-02-12T12:01:34;15.50;;;7.93;;
21816;SDS011;13247;47.504;7.382;2023-02-12T12:04:22;16.73;;;8.65;;
21816;SDS011;13247;47.504;7.382;2023-02-12T12:07:44;16.50;;;8.10;;
21816;SDS011;13247;47.504;7.382;2023-02-12T12:13:17;16.08;;;8.68;;
21816;SDS011;13247;47.504;7.382;2023-02-12T12:16:12;17.67;;;8.77;;
21816;SDS011;13247;47.504;7.382;2023-02-12T12:19:27;14.65;;;7.43;;
21816;SDS011;13247;47.504;7.382;2023-02-12T12:25:56;14.82;;;8.75;;
21816;SDS011;13247;47.504;7.382;2023-02-12T12:32:12;17.27;;;8.17;;
21816;SDS011;13247;47.504;7.382;2023-02-12T12:35:01;18.15;;;8.82;;
21816;SDS011;13247;47.504;7.382;2023-02-12T13:05:43;14.10;;;7.05;;
21816;SDS011;13247;47.504;7.382;2023-02-12T13:12:24;15.25;;;8.15;;
21816;SDS011;13247;47.504;7.382;2023-02-12T13:15:32;14.50;;;8.25;;
21816;SDS011;13247;47.504;7.382;2023-02-12T13:21:53;12.90;;;7.20;;
21816;SDS011;13247;47.504;7.382;2023-02-12T13:24:49;17.08;;;8.43;;
21816;SDS011;13247;47.504;7.382;2023-02-12T13:27:50;16.98;;;8.57;;
21816;SDS011;13247;47.504;7.382;2023-02-12T13:30:40;13.32;;;8.27;;
21816;SDS011;13247;47.504;7.382;2023-02-12T13:33:38;13.40;;;7.53;;
21816;SDS011;13247;47.504;7.382;2023-02-12T13:36:27;14.65;;;8.00;;
21816;SDS011;13247;47.504;7.382;2023-02-12T13:51:13;15.75;;;8.07;;
21816;SDS011;13247;47.504;7.382;2023-02-12T13:57:23;14.70;;;8.13;;
21816;SDS011;13247;47.504;7.382;2023-02-12T14:00:55;15.75;;;8.43;;
21816;SDS011;13247;47.504;7.382;2023-02-12T14:03:35;13.13;;;7.45;;
21816;SDS011;13247;47.504;7.382;2023-02-12T14:06:20;14.48;;;8.38;;
21816;SDS011;13247;47.504;7.382;2023-02-12T14:09:08;15.85;;;8.10;;
21816;SDS011;13247;47.504;7.382;2023-02-12T14:11:54;15.82;;;8.73;;
21816;SDS011;13247;47.504;7.382;2023-02-12T14:14:40;15.40;;;8.82;;
21816;SDS011;13247;47.504;7.382;2023-02-12T14:20:20;15.93;;;9.10;;
21816;SDS011;13247;47.504;7.382;2023-02-12T14:23:25;14.43;;;8.25;;
21816;SDS011;13247;47.504;7.382;2023-02-12T14:26:23;15.45;;;8.98;;
21816;SDS011;13247;47.504;7.382;2023-02-12T14:29:14;15.50;;;8.55;;
21816;SDS011;13247;47.504;7.382;2023-02-12T14:32:12;15.82;;;8.88;;
21816;SDS011;13247;47.504;7.382;2023-02-12T14:47:54;14.85;;;8.50;;
21816;SDS011;13247;47.504;7.382;2023-02-12T14:50:24;17.17;;;8.90;;
21816;SDS011;13247;47.504;7.382;2023-02-12T14:53:28;16.33;;;8.27;;
21816;SDS011;13247;47.504;7.382;2023-02-12T14:56:20;17.87;;;9.17;;
21816;SDS011;13247;47.504;7.382;2023-02-12T14:59:06;14.07;;;8.23;;
21816;SDS011;13247;47.504;7.382;2023-02-12T15:02:02;14.13;;;8.32;;
21816;SDS011;13247;47.504;7.382;2023-02-12T15:04:49;14.38;;;8.40;;
21816;SDS011;13247;47.504;7.382;2023-02-12T15:07:40;14.98;;;8.65;;
21816;SDS011;13247;47.504;7.382;2023-02-12T15:10:33;15.07;;;8.48;;
21816;SDS011;13247;47.504;7.382;2023-02-12T15:13:51;15.88;;;8.23;;
21816;SDS011;13247;47.504;7.382;2023-02-12T15:20:23;16.77;;;8.75;;
21816;SDS011;13247;47.504;7.382;2023-02-12T15:26:21;16.23;;;8.80;;
21816;SDS011;13247;47.504;7.382;2023-02-12T15:32:38;14.80;;;8.60;;
21816;SDS011;13247;47.504;7.382;2023-02-12T15:35:29;16.15;;;8.77;;
21816;SDS011;13247;47.504;7.382;2023-02-12T15:38:18;13.63;;;8.20;;
21816;SDS011;13247;47.504;7.382;2023-02-12T15:41:05;15.95;;;9.13;;
21816;SDS011;13247;47.504;7.382;2023-02-12T15:43:51;18.98;;;8.82;;
21816;SDS011;13247;47.504;7.382;2023-02-12T15:46:36;14.23;;;8.75;;
21816;SDS011;13247;47.504;7.382;2023-02-12T15:49:23;17.67;;;8.02;;
21816;SDS011;13247;47.504;7.382;2023-02-12T15:55:02;15.60;;;7.20;;
21816;SDS011;13247;47.504;7.382;2023-02-12T15:57:53;12.85;;;8.07;;
21816;SDS011;13247;47.504;7.382;2023-02-12T16:00:41;12.40;;;7.53;;
21816;SDS011;13247;47.504;7.382;2023-02-12T16:03:34;16.05;;;7.50;;
21816;SDS011;13247;47.504;7.382;2023-02-12T16:06:20;13.45;;;7.68;;
21816;SDS011;13247;47.504;7.382;2023-02-12T16:12:01;16.20;;;9.18;;
21816;SDS011;13247;47.504;7.382;2023-02-12T16:14:53;16.38;;;8.68;;
21816;SDS011;13247;47.504;7.382;2023-02-12T16:17:45;14.63;;;8.40;;
21816;SDS011;13247;47.504;7.382;2023-02-12T16:20:31;12.85;;;7.25;;
21816;SDS011;13247;47.504;7.382;2023-02-12T16:23:15;14.98;;;8.00;;
21816;SDS011;13247;47.504;7.382;2023-02-12T16:26:03;12.90;;;7.43;;
21816;SDS011;13247;47.504;7.382;2023-02-12T16:28:52;14.00;;;8.02;;
21816;SDS011;13247;47.504;7.382;2023-02-12T16:31:38;16.65;;;8.73;;
21816;SDS011;13247;47.504;7.382;2023-02-12T16:34:37;14.07;;;8.00;;
21816;SDS011;13247;47.504;7.382;2023-02-12T16:37:55;16.48;;;9.18;;
21816;SDS011;13247;47.504;7.382;2023-02-12T16:40:35;14.32;;;7.78;;
21816;SDS011;13247;47.504;7.382;2023-02-12T16:43:23;14.63;;;8.55;;
21816;SDS011;13247;47.504;7.382;2023-02-12T16:46:09;17.38;;;8.95;;
21816;SDS011;13247;47.504;7.382;2023-02-12T16:48:56;12.05;;;6.65;;
21816;SDS011;13247;47.504;7.382;2023-02-12T16:51:43;14.90;;;7.80;;
21816;SDS011;13247;47.504;7.382;2023-02-12T16:54:33;14.43;;;7.97;;
21816;SDS011;13247;47.504;7.382;2023-02-12T16:57:18;14.65;;;8.32;;
21816;SDS011;13247;47.504;7.382;2023-02-12T17:00:03;14.98;;;8.77;;
21816;SDS011;13247;47.504;7.382;2023-02-12T17:02:52;20.23;;;9.80;;
21816;SDS011;13247;47.504;7.382;2023-02-12T17:05:38;15.70;;;8.98;;
21816;SDS011;13247;47.504;7.382;2023-02-12T17:08:25;15.80;;;9.45;;
21816;SDS011;13247;47.504;7.382;2023-02-12T17:11:10;18.45;;;10.77;;
21816;SDS011;13247;47.504;7.382;2023-02-12T17:13:56;23.42;;;12.45;;
21816;SDS011;13247;47.504;7.382;2023-02-12T17:16:41;22.42;;;13.57;;
21816;SDS011;13247;47.504;7.382;2023-02-12T17:19:26;25.10;;;13.65;;
21816;SDS011;13247;47.504;7.382;2023-02-12T17:22:16;23.23;;;11.23;;
21816;SDS011;13247;47.504;7.382;2023-02-12T17:25:08;17.98;;;10.50;;
21816;SDS011;13247;47.504;7.382;2023-02-12T17:27:54;21.02;;;11.10;;
21816;SDS011;13247;47.504;7.382;2023-02-12T17:30:39;21.95;;;12.15;;
21816;SDS011;13247;47.504;7.382;2023-02-12T17:33:24;22.80;;;12.85;;
21816;SDS011;13247;47.504;7.382;2023-02-12T17:36:09;29.58;;;15.82;;
21816;SDS011;13247;47.504;7.382;2023-02-12T17:38:54;24.58;;;14.30;;
21816;SDS011;13247;47.504;7.382;2023-02-12T17:41:39;24.83;;;14.27;;
21816;SDS011;13247;47.504;7.382;2023-02-12T17:44:24;25.13;;;13.70;;
21816;SDS011;13247;47.504;7.382;2023-02-12T17:47:09;23.17;;;14.02;;
21816;SDS011;13247;47.504;7.382;2023-02-12T17:49:54;24.05;;;12.38;;
21816;SDS011;13247;47.504;7.382;2023-02-12T17:52:39;22.58;;;11.48;;
21816;SDS011;13247;47.504;7.382;2023-02-12T17:55:24;21.15;;;11.50;;
21816;SDS011;13247;47.504;7.382;2023-02-12T17:58:09;21.83;;;10.68;;
21816;SDS011;13247;47.504;7.382;2023-02-12T18:00:54;26.02;;;12.52;;
21816;SDS011;13247;47.504;7.382;2023-02-12T18:03:39;22.42;;;12.50;;
21816;SDS011;13247;47.504;7.382;2023-02-12T18:06:25;28.50;;;12.90;;
21816;SDS011;13247;47.504;7.382;2023-02-12T18:09:11;22.73;;;12.48;;
21816;SDS011;13247;47.504;7.382;2023-02-12T18:11:55;33.83;;;16.92;;
21816;SDS011;13247;47.504;7.382;2023-02-12T18:14:40;30.25;;;15.75;;
21816;SDS011;13247;47.504;7.382;2023-02-12T18:17:26;29.58;;;14.88;;
21816;SDS011;13247;47.504;7.382;2023-02-12T18:20:11;26.48;;;13.75;;
21816;SDS011;13247;47.504;7.382;2023-02-12T18:22:56;23.27;;;13.48;;
21816;SDS011;13247;47.504;7.382;2023-02-12T18:25:41;22.75;;;12.77;;
21816;SDS011;13247;47.504;7.382;2023-02-12T18:28:26;26.45;;;13.23;;
21816;SDS011;13247;47.504;7.382;2023-02-12T18:31:11;23.83;;;13.23;;
21816;SDS011;13247;47.504;7.382;2023-02-12T18:33:56;25.77;;;13.05;;
21816;SDS011;13247;47.504;7.382;2023-02-12T18:36:41;28.17;;;14.18;;
21816;SDS011;13247;47.504;7.382;2023-02-12T18:39:26;22.60;;;11.55;;
21816;SDS011;13247;47.504;7.382;2023-02-12T18:42:11;20.50;;;11.07;;
21816;SDS011;13247;47.504;7.382;2023-02-12T18:44:56;20.55;;;10.98;;
21816;SDS011;13247;47.504;7.382;2023-02-12T18:47:41;46.30;;;24.48;;
21816;SDS011;13247;47.504;7.382;2023-02-12T18:50:25;102.32;;;48.70;;
21816;SDS011;13247;47.504;7.382;2023-02-12T18:53:10;68.60;;;34.42;;
21816;SDS011;13247;47.504;7.382;2023-02-12T18:55:55;44.70;;;23.75;;
21816;SDS011;13247;47.504;7.382;2023-02-12T18:58:40;33.63;;;18.38;;
21816;SDS011;13247;47.504;7.382;2023-02-12T19:01:25;24.92;;;14.25;;
21816;SDS011;13247;47.504;7.382;2023-02-12T19:04:11;22.52;;;13.93;;
21816;SDS011;13247;47.504;7.382;2023-02-12T19:06:58;23.45;;;12.75;;
21816;SDS011;13247;47.504;7.382;2023-02-12T19:09:43;29.23;;;12.65;;